Muir Beach, California
Current Conditions -  °F | °C
As of 1:56 PM on Wednesday 26 Nov 2014 (Local Time) from KSFO Reporting Station
Few Clouds Few Clouds  
Wind Chill: 64°   Ceiling: Unl
Heat Index: 64°   Visibility: 8mi
Dew Point: 53°   Wind: 6mph
Humidity: 67%   Direction: 360°N
Pressure: 30.21"   Gusts: NA
Location:  37.8489°N, 122.496°W
Report Text: KSFO 262156Z 36005KT 8SM FEW025 18/12 A3021 RMK AO2 SLP230 T01780117
Loading
Personal Weather Stations






























Interactive Weather Map New forecast layout! Learn more

10-Day Weather Forecast

Advertisements
Track Severe Weather on mobile